Time;durP1;ratioP1;P1;durP2;ratioP2;P2;SDS_P1;SDS_P2;PMS_P1;PMS_P2;Temp;Humidity;BMP_temperature;BMP_pressure;BME280_temperature;BME280_humidity;BME280_pressure;Samples;Min_cycle;Max_cycle;Signal;HPM_P1;HPM_P2
2022/07/05 00:01:02;;;;;;;5.65;2.80;;;12.20;99.90;;;;;;5145193;27;20387;-59
2022/07/05 00:03:28;;;;;;;3.45;2.78;;;12.20;99.90;;;;;;5148216;27;20027;-59
2022/07/05 00:05:54;;;;;;;6.82;3.17;;;12.40;99.90;;;;;;5148588;27;20058;-59
2022/07/05 00:08:20;;;;;;;6.80;3.10;;;12.50;99.90;;;;;;5146508;27;20035;-60
2022/07/05 00:10:45;;;;;;;3.55;2.70;;;12.60;99.90;;;;;;5148712;27;20038;-60
2022/07/05 00:13:11;;;;;;;4.13;3.05;;;12.50;99.90;;;;;;5145402;27;20087;-60
2022/07/05 00:15:37;;;;;;;4.10;2.88;;;12.50;99.90;;;;;;5146960;27;20039;-59
2022/07/05 00:18:05;;;;;;;6.38;3.03;;;12.50;99.90;;;;;;5111762;27;20480;-61
2022/07/05 00:20:31;;;;;;;6.55;2.65;;;12.40;99.90;;;;;;5138010;27;20035;-59
2022/07/05 00:22:56;;;;;;;3.80;2.72;;;12.30;99.90;;;;;;5130125;27;20079;-60
2022/07/05 00:25:22;;;;;;;4.80;3.17;;;12.30;99.90;;;;;;5150214;27;20042;-60
2022/07/05 00:27:47;;;;;;;7.93;3.10;;;12.20;99.90;;;;;;5131723;27;20103;-59
2022/07/05 00:30:13;;;;;;;3.75;3.30;;;12.20;99.90;;;;;;5130678;27;20047;-60
2022/07/05 00:32:39;;;;;;;4.82;3.13;;;12.10;99.90;;;;;;5112164;27;20039;-59
2022/07/05 00:35:06;;;;;;;3.97;2.97;;;12.10;99.90;;;;;;5146832;27;20043;-59
2022/07/05 00:37:32;;;;;;;5.35;2.92;;;12.10;99.90;;;;;;5146422;27;20045;-59
2022/07/05 00:39:57;;;;;;;5.93;3.00;;;12.10;99.90;;;;;;5146031;27;20441;-60
2022/07/05 00:42:23;;;;;;;4.43;3.00;;;12.10;99.90;;;;;;5150654;27;20062;-59
2022/07/05 00:44:48;;;;;;;3.90;2.50;;;12.00;99.90;;;;;;5151264;27;20046;-60
2022/07/05 00:47:14;;;;;;;3.83;2.58;;;12.00;99.90;;;;;;5148089;27;20039;-59
2022/07/05 00:49:42;;;;;;;5.07;2.40;;;11.90;99.90;;;;;;5150452;27;20030;-59
2022/07/05 00:52:08;;;;;;;4.35;2.60;;;11.90;99.90;;;;;;5145932;27;20047;-59
2022/07/05 00:54:36;;;;;;;4.20;2.72;;;11.90;99.90;;;;;;5111999;27;20046;-60
2022/07/05 00:57:02;;;;;;;6.18;2.60;;;11.90;99.90;;;;;;5148729;27;20062;-59
2022/07/05 00:59:29;;;;;;;4.55;2.70;;;11.90;99.90;;;;;;5147523;27;20583;-58
2022/07/05 01:01:55;;;;;;;3.25;2.50;;;11.80;99.90;;;;;;5149334;27;20158;-59
2022/07/05 01:04:21;;;;;;;4.07;2.60;;;11.80;99.90;;;;;;5127949;27;20045;-59
2022/07/05 01:06:49;;;;;;;4.85;3.00;;;11.80;99.90;;;;;;5151456;27;20035;-59
2022/07/05 01:09:16;;;;;;;4.68;2.65;;;11.80;99.90;;;;;;5151649;27;20043;-60
2022/07/05 01:11:47;;;;;;;3.92;2.33;;;11.70;99.90;;;;;;5130958;27;20167;-59
2022/07/05 01:14:20;;;;;;;3.70;2.70;;;11.70;99.90;;;;;;5131259;27;20050;-60
2022/07/05 01:16:48;;;;;;;3.53;2.92;;;11.60;99.90;;;;;;5138866;27;20039;-59
2022/07/05 01:19:14;;;;;;;4.03;3.00;;;11.60;99.90;;;;;;5151402;27;20030;-60
2022/07/05 01:21:43;;;;;;;3.88;2.80;;;11.50;99.90;;;;;;5154350;27;20039;-60
2022/07/05 01:24:11;;;;;;;3.20;2.53;;;11.50;99.90;;;;;;5146429;27;20534;-59
2022/07/05 01:26:38;;;;;;;4.38;2.95;;;11.50;99.90;;;;;;5153770;27;20180;-60
2022/07/05 01:29:04;;;;;;;7.32;3.08;;;11.40;99.90;;;;;;5132685;27;20533;-59
2022/07/05 01:31:30;;;;;;;5.68;2.78;;;11.40;99.90;;;;;;5150808;27;20066;-60
2022/07/05 01:33:56;;;;;;;4.50;2.70;;;11.40;99.90;;;;;;5150773;27;20086;-60
2022/07/05 01:36:22;;;;;;;4.10;2.80;;;11.40;99.90;;;;;;5153469;27;20045;-59
2022/07/05 01:38:49;;;;;;;4.50;3.10;;;11.40;99.90;;;;;;5152600;27;20342;-59
2022/07/05 01:41:15;;;;;;;3.35;3.03;;;11.40;99.90;;;;;;5148407;27;20482;-61
2022/07/05 01:43:41;;;;;;;4.55;3.25;;;11.40;99.90;;;;;;5150445;27;20075;-59
2022/07/05 01:46:08;;;;;;;6.45;3.40;;;11.40;99.90;;;;;;5148971;27;20043;-60
2022/07/05 01:48:36;;;;;;;4.43;3.30;;;11.30;99.90;;;;;;5152017;27;20404;-60
2022/07/05 01:51:13;;;;;;;5.32;3.25;;;11.30;99.90;;;;;;5151199;27;20035;-59
2022/07/05 01:53:44;;;;;;;5.25;3.30;;;11.30;99.90;;;;;;5144833;27;20035;-60
2022/07/05 01:56:09;;;;;;;3.60;3.13;;;11.20;99.90;;;;;;5114135;27;20043;-59
2022/07/05 01:58:36;;;;;;;3.70;2.78;;;11.20;99.90;;;;;;5150066;27;20031;-60
2022/07/05 02:15:45;;;;;;;;;;;10.90;99.90;;;;;;5148285;27;20026;-59
2022/07/05 02:18:11;;;;;;;7.80;3.53;;;10.90;99.90;;;;;;5150685;27;19919;-59
2022/07/05 02:20:38;;;;;;;3.70;3.30;;;10.90;99.90;;;;;;5153189;27;20042;-59
2022/07/05 02:23:04;;;;;;;8.13;3.47;;;10.90;99.90;;;;;;5151582;27;20138;-60
2022/07/05 02:25:36;;;;;;;5.45;3.28;;;10.90;99.90;;;;;;5152376;27;20062;-59
2022/07/05 02:28:01;;;;;;;5.53;3.58;;;10.90;99.90;;;;;;5150521;27;20046;-59
2022/07/05 02:30:27;;;;;;;5.13;3.65;;;10.90;99.90;;;;;;5146909;27;21940;-60
2022/07/05 02:32:53;;;;;;;4.13;3.63;;;10.80;99.90;;;;;;5146568;27;20095;-59
2022/07/05 02:35:19;;;;;;;4.18;3.60;;;10.80;99.90;;;;;;5150745;27;20034;-59
2022/07/05 02:37:44;;;;;;;5.82;3.55;;;10.80;99.90;;;;;;5132432;27;20123;-59
2022/07/05 02:40:11;;;;;;;7.32;3.70;;;10.80;99.90;;;;;;5148787;27;20091;-59
2022/07/05 02:42:38;;;;;;;3.97;3.30;;;10.80;99.90;;;;;;5151958;27;20031;-59
2022/07/05 02:45:23;;;;;;;4.57;3.35;;;10.80;99.90;;;;;;5128540;27;20078;-59
2022/07/05 02:47:49;;;;;;;8.27;4.05;;;10.80;99.90;;;;;;5151482;27;20529;-60
2022/07/05 02:50:15;;;;;;;6.15;3.80;;;10.70;99.90;;;;;;5131404;27;20034;-61
2022/07/05 02:52:41;;;;;;;5.30;3.42;;;10.70;99.90;;;;;;5153568;27;20043;-61
2022/07/05 02:55:07;;;;;;;5.75;3.60;;;10.70;99.90;;;;;;5146864;27;20072;-61
2022/07/05 02:57:32;;;;;;;4.53;3.72;;;10.70;99.90;;;;;;5151525;27;20047;-63
2022/07/05 02:59:58;;;;;;;7.45;4.07;;;10.70;99.90;;;;;;5148166;27;20033;-63
2022/07/05 03:02:24;;;;;;;8.20;4.32;;;10.80;99.90;;;;;;5150353;27;20042;-62
2022/07/05 03:04:50;;;;;;;5.25;4.57;;;10.70;99.90;;;;;;5148787;27;20494;-62
2022/07/05 03:07:16;;;;;;;7.50;5.13;;;10.70;99.90;;;;;;5150494;27;20045;-62
2022/07/05 03:09:42;;;;;;;8.93;4.90;;;10.70;99.90;;;;;;5129040;27;21004;-61
2022/07/05 03:12:08;;;;;;;6.55;4.75;;;10.70;99.90;;;;;;5132080;27;20045;-63
2022/07/05 03:14:33;;;;;;;7.65;4.45;;;10.80;99.90;;;;;;5144390;27;20080;-62
2022/07/05 03:16:59;;;;;;;7.35;4.82;;;10.70;99.90;;;;;;5151794;27;20084;-62
2022/07/05 03:19:25;;;;;;;4.97;3.92;;;10.70;99.90;;;;;;5129363;27;20065;-62
2022/07/05 03:21:50;;;;;;;5.63;4.50;;;10.70;99.90;;;;;;5149095;27;20478;-61
2022/07/05 03:24:16;;;;;;;5.90;4.60;;;10.70;99.90;;;;;;5150249;27;20041;-61
2022/07/05 03:26:42;;;;;;;6.97;4.72;;;10.70;99.90;;;;;;5138851;27;20030;-61
2022/07/05 03:29:10;;;;;;;7.80;4.90;;;10.60;99.90;;;;;;5129559;27;20034;-61
2022/07/05 03:31:36;;;;;;;7.05;4.63;;;10.70;99.90;;;;;;5131116;27;20039;-62
2022/07/05 03:34:01;;;;;;;8.82;4.95;;;10.60;99.90;;;;;;5150701;27;20056;-62
2022/07/05 03:36:27;;;;;;;7.68;4.97;;;10.70;99.90;;;;;;5147181;27;20133;-62
2022/07/05 03:38:52;;;;;;;7.50;5.18;;;10.70;99.90;;;;;;5151089;27;20066;-62
2022/07/05 03:41:18;;;;;;;7.28;5.40;;;10.90;99.90;;;;;;5135142;27;20542;-63
2022/07/05 03:43:44;;;;;;;6.75;5.22;;;10.90;99.90;;;;;;5144713;27;20387;-61
2022/07/05 03:46:09;;;;;;;8.60;6.00;;;10.90;99.90;;;;;;5144827;27;20043;-63
2022/07/05 03:48:35;;;;;;;12.32;7.13;;;11.00;99.90;;;;;;5149970;27;20057;-62
2022/07/05 03:51:01;;;;;;;11.70;6.53;;;11.00;99.90;;;;;;5132002;27;20095;-62
2022/07/05 03:53:26;;;;;;;10.50;6.65;;;11.10;99.90;;;;;;5150353;27;20034;-62
2022/07/05 03:55:52;;;;;;;12.32;6.68;;;11.10;99.90;;;;;;5149531;27;20513;-61
2022/07/05 03:58:18;;;;;;;10.40;6.50;;;11.10;99.90;;;;;;5150044;27;20035;-62
2022/07/05 04:00:43;;;;;;;9.15;6.40;;;11.10;99.90;;;;;;5148826;27;20030;-62
2022/07/05 04:03:09;;;;;;;10.65;6.70;;;11.20;99.90;;;;;;5149168;27;20035;-62
2022/07/05 04:05:34;;;;;;;10.15;6.30;;;11.20;99.90;;;;;;5149809;27;20035;-62
2022/07/05 04:08:00;;;;;;;10.38;6.60;;;11.20;99.90;;;;;;5147136;27;20050;-63
2022/07/05 04:10:26;;;;;;;13.13;7.78;;;11.20;99.90;;;;;;5143209;27;20411;-62
2022/07/05 04:12:51;;;;;;;9.35;6.65;;;11.30;99.90;;;;;;5132679;27;20031;-62
2022/07/05 04:15:17;;;;;;;13.20;7.20;;;11.40;99.90;;;;;;5151806;27;20046;-62
2022/07/05 04:18:01;;;;;;;9.88;7.03;;;11.50;99.90;;;;;;5147835;27;20078;-63
2022/07/05 04:20:26;;;;;;;11.75;7.60;;;11.50;99.90;;;;;;5131309;27;20031;-61
2022/07/05 04:22:52;;;;;;;12.45;6.88;;;11.60;99.90;;;;;;5150662;27;20502;-63
2022/07/05 04:25:18;;;;;;;13.52;7.65;;;11.70;99.90;;;;;;5131345;27;20062;-62
2022/07/05 04:27:53;;;;;;;14.25;7.85;;;11.80;99.90;;;;;;5149992;27;20050;-63
2022/07/05 04:30:20;;;;;;;12.60;7.78;;;11.90;99.90;;;;;;5148114;27;20049;-62
2022/07/05 04:32:46;;;;;;;10.93;7.18;;;11.90;99.90;;;;;;5149363;27;20047;-62
2022/07/05 04:35:12;;;;;;;10.40;6.93;;;12.00;99.90;;;;;;5150570;27;20121;-62
2022/07/05 04:37:38;;;;;;;12.63;7.85;;;12.00;99.90;;;;;;5130939;27;20046;-62
2022/07/05 04:40:06;;;;;;;9.18;6.70;;;12.10;99.90;;;;;;5110745;27;20062;-62
2022/07/05 04:42:32;;;;;;;12.10;7.35;;;12.10;99.90;;;;;;5117940;27;20478;-63
2022/07/05 04:44:57;;;;;;;9.10;6.70;;;12.20;99.90;;;;;;5149379;27;20118;-62
2022/07/05 04:47:25;;;;;;;9.63;6.57;;;12.30;99.90;;;;;;5151607;27;20038;-62
2022/07/05 04:49:51;;;;;;;9.23;6.78;;;12.40;99.90;;;;;;5135138;27;20050;-63
2022/07/05 04:52:17;;;;;;;8.02;6.25;;;12.40;99.90;;;;;;5150822;27;20597;-62
2022/07/05 04:54:42;;;;;;;9.27;6.05;;;12.60;99.90;;;;;;5153803;27;20046;-62
2022/07/05 04:57:08;;;;;;;9.55;5.97;;;12.70;99.90;;;;;;5132598;27;20438;-62
2022/07/05 04:59:34;;;;;;;8.50;6.60;;;12.90;99.90;;;;;;5149632;27;20172;-63
2022/07/05 05:01:59;;;;;;;9.70;6.40;;;13.00;99.90;;;;;;5153916;27;20042;-62
2022/07/05 05:04:25;;;;;;;8.00;5.93;;;13.20;99.90;;;;;;5147538;27;20058;-63
2022/07/05 05:06:50;;;;;;;8.73;5.80;;;13.30;99.90;;;;;;5144085;27;20045;-61
2022/07/05 05:09:16;;;;;;;8.20;5.53;;;13.30;99.90;;;;;;5133337;27;20775;-63
2022/07/05 05:11:42;;;;;;;7.63;5.47;;;13.30;99.90;;;;;;5147442;27;20039;-63
2022/07/05 05:14:07;;;;;;;6.57;5.65;;;13.40;99.90;;;;;;5150791;27;20050;-63
2022/07/05 05:16:33;;;;;;;8.70;5.60;;;13.50;99.90;;;;;;5151929;27;20406;-62
2022/07/05 05:18:59;;;;;;;7.47;5.68;;;13.70;99.90;;;;;;5149769;27;20046;-62
2022/07/05 05:21:24;;;;;;;7.72;5.82;;;13.80;99.90;;;;;;5153185;27;20371;-63
2022/07/05 05:23:50;;;;;;;7.30;5.85;;;14.00;99.90;;;;;;5131685;27;20030;-63
2022/07/05 05:26:15;;;;;;;8.95;5.20;;;14.10;99.90;;;;;;5151106;27;20091;-63
2022/07/05 05:28:41;;;;;;;6.70;5.65;;;14.10;99.90;;;;;;5131940;27;20035;-62
2022/07/05 05:31:07;;;;;;;5.85;5.18;;;14.30;99.90;;;;;;5152864;27;20037;-62
2022/07/05 05:33:33;;;;;;;5.95;4.93;;;14.60;99.90;;;;;;5148791;27;20531;-63
2022/07/05 05:35:59;;;;;;;7.65;5.13;;;14.70;99.90;;;;;;5150224;27;20038;-63
2022/07/05 05:38:24;;;;;;;5.57;4.30;;;15.00;99.90;;;;;;5154487;27;20038;-63
2022/07/05 05:40:50;;;;;;;4.78;4.07;;;15.10;99.90;;;;;;5151982;27;20063;-63
2022/07/05 05:43:15;;;;;;;6.30;3.95;;;15.20;99.90;;;;;;5150786;27;20096;-63
2022/07/05 05:45:41;;;;;;;5.80;3.63;;;15.40;99.90;;;;;;5152446;27;20390;-63
2022/07/05 05:48:06;;;;;;;4.70;3.17;;;15.60;99.90;;;;;;5152023;27;20439;-64
2022/07/05 05:50:38;;;;;;;4.65;3.50;;;15.80;99.90;;;;;;5152634;27;20114;-63
2022/07/05 05:53:04;;;;;;;4.97;3.22;;;16.00;99.90;;;;;;5152208;27;20050;-63
2022/07/05 05:55:31;;;;;;;4.32;2.80;;;16.30;99.90;;;;;;5151274;27;20055;-65
2022/07/05 05:58:09;;;;;;;6.97;3.38;;;16.50;99.90;;;;;;5153845;27;20111;-63
2022/07/05 06:00:35;;;;;;;4.88;2.60;;;16.60;99.90;;;;;;5146186;27;20046;-61
2022/07/05 06:03:00;;;;;;;4.05;2.78;;;16.80;99.90;;;;;;5153093;27;20035;-62
2022/07/05 06:05:26;;;;;;;5.75;2.63;;;16.80;99.90;;;;;;5133278;27;20041;-62
2022/07/05 06:07:53;;;;;;;4.03;2.90;;;17.00;99.20;;;;;;5150823;27;20039;-60
2022/07/05 06:10:20;;;;;;;2.83;2.30;;;17.20;98.40;;;;;;5148076;27;20462;-61
2022/07/05 06:12:47;;;;;;;4.38;2.72;;;17.30;97.60;;;;;;5153068;27;20062;-61
2022/07/05 06:15:13;;;;;;;6.80;2.40;;;17.30;97.10;;;;;;5147115;27;20173;-62
2022/07/05 06:17:39;;;;;;;3.47;2.25;;;17.50;96.60;;;;;;5150080;27;20675;-61
2022/07/05 06:20:07;;;;;;;2.85;2.10;;;17.70;95.90;;;;;;5152544;27;20121;-61
2022/07/05 06:22:32;;;;;;;3.75;2.17;;;17.80;95.10;;;;;;5149882;27;20041;-62
2022/07/05 06:24:58;;;;;;;4.35;2.20;;;17.90;95.10;;;;;;5153812;27;20034;-61
2022/07/05 06:27:23;;;;;;;3.55;2.47;;;18.10;94.30;;;;;;5151363;27;20078;-61
2022/07/05 06:29:49;;;;;;;3.60;2.22;;;18.20;93.60;;;;;;5143828;27;20035;-62
2022/07/05 06:32:14;;;;;;;3.85;2.25;;;18.40;93.10;;;;;;5148928;27;20047;-62
2022/07/05 06:34:40;;;;;;;3.10;2.03;;;18.50;92.40;;;;;;5150700;27;20034;-62
2022/07/05 06:37:05;;;;;;;3.35;2.00;;;18.60;91.90;;;;;;5149760;27;20108;-61
2022/07/05 06:39:32;;;;;;;3.28;2.10;;;18.90;91.20;;;;;;5148236;27;20406;-61
2022/07/05 06:41:58;;;;;;;3.08;2.30;;;18.80;90.70;;;;;;5150546;27;20083;-62
2022/07/05 06:44:23;;;;;;;3.45;1.90;;;19.00;90.20;;;;;;5149028;27;20034;-61
2022/07/05 06:46:49;;;;;;;4.30;2.38;;;19.10;89.60;;;;;;5163145;27;20044;-61
2022/07/05 06:49:15;;;;;;;3.03;2.30;;;19.20;88.80;;;;;;5129943;27;20039;-61
2022/07/05 06:51:40;;;;;;;3.65;2.05;;;19.40;88.10;;;;;;5166808;27;20486;-62
2022/07/05 06:54:06;;;;;;;3.17;2.00;;;19.60;87.70;;;;;;5123100;27;20099;-63
2022/07/05 06:56:31;;;;;;;2.60;1.90;;;19.70;87.30;;;;;;5148235;27;20507;-62
2022/07/05 06:58:57;;;;;;;4.10;1.92;;;19.90;85.80;;;;;;5152336;27;20124;-63
2022/07/05 07:01:22;;;;;;;3.08;1.92;;;20.10;84.70;;;;;;5151085;27;20034;-62
2022/07/05 07:03:48;;;;;;;2.40;1.50;;;20.20;83.70;;;;;;5155010;27;20041;-62
2022/07/05 07:06:14;;;;;;;3.90;1.50;;;20.30;82.10;;;;;;5152189;27;20027;-62
2022/07/05 07:11:25;;;;;;;4.60;1.23;;;20.50;78.70;;;;;;5146462;27;20063;-62
2022/07/05 07:13:50;;;;;;;2.00;0.98;;;20.90;78.20;;;;;;5143212;27;20489;-62
2022/07/05 07:16:16;;;;;;;2.22;0.95;;;21.10;77.00;;;;;;5172350;27;20815;-62
2022/07/05 07:18:41;;;;;;;3.17;1.08;;;21.00;74.80;;;;;;5152188;27;20063;-62
2022/07/05 07:21:07;;;;;;;3.72;1.23;;;20.90;74.60;;;;;;5166295;27;20063;-62
2022/07/05 07:23:33;;;;;;;1.50;1.10;;;21.10;74.50;;;;;;5137432;27;20047;-62
2022/07/05 07:25:58;;;;;;;2.83;1.05;;;21.30;74.10;;;;;;5148754;27;20039;-62
2022/07/05 07:28:24;;;;;;;2.78;1.10;;;21.40;72.50;;;;;;5133184;27;20061;-62
2022/07/05 07:30:49;;;;;;;1.65;0.70;;;21.30;71.50;;;;;;5147616;27;20082;-63
2022/07/05 07:33:15;;;;;;;6.00;1.05;;;21.80;70.50;;;;;;5153538;27;20042;-62
2022/07/05 07:35:40;;;;;;;3.55;0.80;;;21.80;70.20;;;;;;5150746;27;20086;-62
2022/07/05 07:38:06;;;;;;;2.05;0.80;;;21.50;68.50;;;;;;5153533;27;20426;-61
2022/07/05 07:40:32;;;;;;;3.22;1.10;;;21.30;67.70;;;;;;5125620;27;20114;-62
2022/07/05 07:42:57;;;;;;;2.15;0.90;;;21.30;67.20;;;;;;5148451;27;20030;-62
2022/07/05 07:45:23;;;;;;;6.47;0.82;;;21.30;67.00;;;;;;5147967;27;20038;-62
2022/07/05 07:47:48;;;;;;;3.28;0.90;;;21.40;66.10;;;;;;5133421;27;20045;-62
2022/07/05 07:50:14;;;;;;;3.50;0.75;;;21.70;65.60;;;;;;5152991;27;20033;-62
2022/07/05 07:52:40;;;;;;;2.35;0.80;;;22.00;65.10;;;;;;5150865;27;20026;-62
2022/07/05 07:55:06;;;;;;;1.92;0.82;;;22.20;65.00;;;;;;5149372;27;20760;-62
2022/07/05 07:57:32;;;;;;;2.80;0.77;;;22.40;62.90;;;;;;5157728;27;20490;-62
2022/07/05 07:59:57;;;;;;;2.78;0.93;;;21.80;62.30;;;;;;5149646;27;20150;-62
2022/07/05 08:02:23;;;;;;;2.35;0.68;;;21.90;62.00;;;;;;5152788;27;20035;-63
2022/07/05 08:04:53;;;;;;;2.15;0.80;;;21.90;61.60;;;;;;5150140;27;20037;-63
2022/07/05 08:07:22;;;;;;;1.20;0.70;;;21.70;62.00;;;;;;5114481;27;20359;-62
2022/07/05 08:09:48;;;;;;;3.60;1.02;;;21.70;62.30;;;;;;5123374;27;21428;-62
2022/07/05 08:12:13;;;;;;;2.50;0.60;;;22.10;61.00;;;;;;5165033;27;20039;-62
2022/07/05 08:14:39;;;;;;;2.33;0.70;;;22.70;60.80;;;;;;5151719;27;20041;-63
2022/07/05 08:17:08;;;;;;;1.80;0.70;;;23.30;59.80;;;;;;5158603;27;20046;-62
2022/07/05 08:22:19;;;;;;;3.75;1.15;;;22.70;57.90;;;;;;5134649;27;20547;-62
2022/07/05 08:24:45;;;;;;;4.57;0.93;;;22.50;57.40;;;;;;5151389;27;20054;-61
2022/07/05 08:27:11;;;;;;;3.45;0.82;;;22.30;56.90;;;;;;5158015;27;20369;-61
2022/07/05 08:29:37;;;;;;;3.20;0.90;;;22.10;56.80;;;;;;5157417;27;20561;-62
2022/07/05 08:32:03;;;;;;;2.35;0.65;;;21.80;56.90;;;;;;5131662;27;20107;-61
2022/07/05 08:34:29;;;;;;;1.92;0.60;;;21.80;57.40;;;;;;5137987;27;20095;-63
2022/07/05 08:36:55;;;;;;;2.53;0.75;;;21.90;58.40;;;;;;5161434;27;20114;-62
2022/07/05 08:39:21;;;;;;;3.45;0.90;;;21.90;57.90;;;;;;5129408;27;20043;-62
2022/07/05 08:41:51;;;;;;;2.08;0.70;;;22.00;58.30;;;;;;5157945;27;20030;-62
2022/07/05 08:44:22;;;;;;;5.05;0.95;;;22.10;58.40;;;;;;5174485;27;20153;-62
2022/07/05 08:46:50;;;;;;;2.45;0.73;;;22.10;57.90;;;;;;5155258;27;20423;-62
2022/07/05 08:49:22;;;;;;;1.45;0.65;;;22.40;57.90;;;;;;5133768;27;20416;-63
2022/07/05 08:51:49;;;;;;;2.75;1.00;;;22.80;57.90;;;;;;5156995;27;20038;-62
2022/07/05 08:54:15;;;;;;;3.38;0.68;;;23.70;56.70;;;;;;5139557;27;20058;-62
2022/07/05 08:56:42;;;;;;;1.45;0.73;;;24.10;55.70;;;;;;5160514;27;20042;-63
2022/07/05 08:59:07;;;;;;;2.83;0.68;;;23.90;55.00;;;;;;5137200;27;20443;-63
2022/07/05 09:01:34;;;;;;;2.60;0.82;;;23.40;55.30;;;;;;5158799;27;20077;-62
2022/07/05 09:04:07;;;;;;;2.35;0.90;;;23.50;55.00;;;;;;5120097;27;20035;-62
2022/07/05 09:06:37;;;;;;;1.63;0.70;;;23.50;52.90;;;;;;5148053;27;20077;-62
2022/07/05 09:09:06;;;;;;;;;;;24.10;52.80;;;;;;5141724;27;20054;-63
2022/07/05 09:11:40;;;;;;;1.67;0.80;;;24.20;52.50;;;;;;5150558;27;19934;-62
2022/07/05 09:14:18;;;;;;;3.80;0.82;;;24.80;52.60;;;;;;5156801;27;20050;-63
2022/07/05 09:16:44;;;;;;;2.97;0.80;;;25.00;50.80;;;;;;5158773;27;20368;-63
2022/07/05 09:19:09;;;;;;;1.88;0.60;;;24.70;50.20;;;;;;5102678;27;20035;-63
2022/07/05 09:21:35;;;;;;;2.80;0.70;;;24.80;49.80;;;;;;5157067;27;20031;-62
2022/07/05 09:24:04;;;;;;;3.08;0.70;;;24.40;49.00;;;;;;5165143;27;20038;-63
2022/07/05 09:26:37;;;;;;;3.33;0.90;;;23.70;50.00;;;;;;5120936;27;20491;-63
2022/07/05 09:29:08;;;;;;;2.85;0.70;;;23.60;50.00;;;;;;5154088;27;20042;-63
2022/07/05 09:31:39;;;;;;;2.25;0.70;;;23.30;51.60;;;;;;5152842;27;20033;-62
2022/07/05 09:34:15;;;;;;;3.83;0.70;;;23.10;52.10;;;;;;5154428;27;20038;-63
2022/07/05 09:36:58;;;;;;;2.50;0.90;;;23.60;50.90;;;;;;5137007;27;20034;-63
2022/07/05 09:39:30;;;;;;;1.92;0.90;;;24.80;47.80;;;;;;5136250;27;20109;-62
2022/07/05 09:42:19;;;;;;;2.30;0.70;;;24.60;46.10;;;;;;5155799;27;20060;-63
2022/07/05 09:44:50;;;;;;;1.83;0.60;;;24.10;46.70;;;;;;5150358;27;20038;-62
2022/07/05 09:47:17;;;;;;;2.50;0.80;;;23.50;48.70;;;;;;5159761;27;20034;-63
2022/07/05 09:49:53;;;;;;;3.58;0.75;;;23.90;49.60;;;;;;5150866;27;20050;-63
2022/07/05 09:52:33;;;;;;;1.75;0.60;;;24.70;47.40;;;;;;5153070;27;20030;-62
2022/07/05 09:55:05;;;;;;;2.40;0.77;;;25.40;45.70;;;;;;5152160;27;20059;-63
2022/07/05 09:57:31;;;;;;;3.53;0.88;;;24.80;46.60;;;;;;5155414;27;20045;-62
2022/07/05 10:00:05;;;;;;;2.08;0.77;;;24.00;47.70;;;;;;5152480;27;20035;-62
2022/07/05 10:02:42;;;;;;;3.05;1.02;;;23.40;47.80;;;;;;5148314;27;20119;-62
2022/07/05 10:05:12;;;;;;;1.05;0.63;;;23.00;49.20;;;;;;5155552;27;20739;-62
2022/07/05 10:07:44;;;;;;;1.80;0.77;;;22.40;50.40;;;;;;5156861;27;20063;-62
2022/07/05 10:10:31;;;;;;;1.38;0.75;;;22.10;50.70;;;;;;5171130;27;20061;-63
2022/07/05 10:13:01;;;;;;;2.42;0.80;;;22.00;51.70;;;;;;5150874;27;20073;-62
2022/07/05 10:15:32;;;;;;;3.33;0.70;;;21.90;52.60;;;;;;5154779;27;20034;-62
2022/07/05 10:18:08;;;;;;;5.35;1.42;;;22.10;53.00;;;;;;5153162;27;20042;-62
2022/07/05 10:20:42;;;;;;;5.57;1.33;;;22.10;54.20;;;;;;5154770;27;20470;-63
2022/07/05 10:23:18;;;;;;;4.25;1.38;;;22.30;54.30;;;;;;5148110;27;20061;-63
2022/07/05 10:25:49;;;;;;;5.20;1.27;;;22.10;54.50;;;;;;5168010;27;20037;-62
2022/07/05 10:28:16;;;;;;;3.22;0.93;;;22.00;55.10;;;;;;5134838;27;20519;-63
2022/07/05 10:30:45;;;;;;;2.85;0.68;;;21.90;54.80;;;;;;5147361;27;20045;-63
2022/07/05 10:33:14;;;;;;;1.85;0.80;;;21.70;54.40;;;;;;5151466;27;20070;-61
2022/07/05 10:35:43;;;;;;;5.38;1.10;;;21.60;55.20;;;;;;5151157;27;20039;-62
2022/07/05 10:38:09;;;;;;;2.90;1.20;;;21.60;55.20;;;;;;5153727;27;20049;-61
2022/07/05 10:40:36;;;;;;;2.45;0.82;;;21.60;54.50;;;;;;5117551;27;20094;-62
2022/07/05 10:43:03;;;;;;;1.63;1.02;;;21.30;54.70;;;;;;5153487;27;20086;-61
2022/07/05 10:45:30;;;;;;;2.47;0.75;;;21.40;55.10;;;;;;5149653;27;20030;-62
2022/07/05 10:48:13;;;;;;;3.28;0.70;;;21.40;55.90;;;;;;5152784;27;20077;-62
2022/07/05 10:50:45;;;;;;;3.88;1.10;;;21.70;55.80;;;;;;5149165;27;20118;-62
2022/07/05 10:53:12;;;;;;;2.58;1.10;;;22.60;54.90;;;;;;5152796;27;20059;-62
2022/07/05 10:55:58;;;;;;;3.28;1.10;;;23.20;53.80;;;;;;5147507;27;20050;-62
2022/07/05 10:58:42;;;;;;;2.88;0.82;;;23.40;54.30;;;;;;5137937;27;20047;-62
2022/07/05 11:01:23;;;;;;;3.00;0.90;;;23.20;52.20;;;;;;5148943;27;20070;-62
2022/07/05 11:04:00;;;;;;;2.97;1.00;;;23.00;53.80;;;;;;5149090;27;20037;-62
2022/07/05 11:06:33;;;;;;;3.15;0.90;;;22.70;53.60;;;;;;5140648;27;20058;-61
2022/07/05 11:08:59;;;;;;;3.42;0.70;;;22.40;54.50;;;;;;5145187;27;20489;-62
2022/07/05 11:11:25;;;;;;;1.75;0.80;;;22.30;55.40;;;;;;5149090;27;20146;-63
2022/07/05 11:13:53;;;;;;;5.82;1.17;;;22.10;56.10;;;;;;5141410;27;20527;-62
2022/07/05 11:16:25;;;;;;;3.33;1.20;;;22.10;56.40;;;;;;5150574;27;20470;-61
2022/07/05 11:19:11;;;;;;;1.30;0.80;;;22.00;56.40;;;;;;5149716;27;20091;-61
2022/07/05 11:21:58;;;;;;;3.88;0.95;;;21.70;55.90;;;;;;5150902;27;20039;-61
2022/07/05 11:24:30;;;;;;;1.70;1.02;;;21.70;55.60;;;;;;5149834;27;20043;-62
2022/07/05 11:27:01;;;;;;;2.45;0.90;;;21.40;55.90;;;;;;5150665;27;20436;-61
2022/07/05 11:29:53;;;;;;;3.60;1.05;;;21.30;56.30;;;;;;5142885;27;20062;-62
2022/07/05 11:32:23;;;;;;;2.58;0.90;;;21.10;57.40;;;;;;5152764;27;20034;-62
2022/07/05 11:34:54;;;;;;;3.75;1.05;;;20.70;57.90;;;;;;5150213;27;20034;-62
2022/07/05 11:37:24;;;;;;;1.83;1.02;;;20.70;58.80;;;;;;5153610;27;20034;-61
2022/07/05 11:40:11;;;;;;;6.00;1.45;;;20.70;58.80;;;;;;5130474;27;20031;-61
2022/07/05 11:42:42;;;;;;;2.35;0.75;;;20.70;59.00;;;;;;5151249;27;20034;-62
2022/07/05 11:45:10;;;;;;;4.07;1.02;;;20.70;58.40;;;;;;5131253;27;20479;-62
2022/07/05 11:47:36;;;;;;;2.88;1.02;;;20.80;57.90;;;;;;5152872;27;20374;-62
2022/07/05 11:50:02;;;;;;;3.13;1.08;;;21.10;57.50;;;;;;5151814;27;20038;-62
2022/07/05 11:52:29;;;;;;;2.90;1.00;;;21.40;57.10;;;;;;5154357;27;20047;-62
2022/07/05 11:54:57;;;;;;;1.45;0.90;;;21.70;57.20;;;;;;5151895;27;20055;-61
2022/07/05 11:57:23;;;;;;;2.83;0.98;;;21.90;57.50;;;;;;5120774;27;20110;-62
2022/07/05 11:59:49;;;;;;;4.80;0.80;;;21.90;56.20;;;;;;5146016;27;20031;-64
2022/07/05 12:02:15;;;;;;;2.80;0.90;;;21.70;55.30;;;;;;5153037;27;20098;-62
2022/07/05 12:04:47;;;;;;;1.38;0.73;;;22.00;55.00;;;;;;5150867;27;20121;-62
2022/07/05 12:07:23;;;;;;;2.75;0.80;;;22.30;54.60;;;;;;5142855;27;20127;-62
2022/07/05 12:12:47;;;;;;;3.13;0.70;;;22.60;53.70;;;;;;5152358;27;20126;-63
2022/07/05 12:15:15;;;;;;;2.40;0.77;;;22.20;54.00;;;;;;5145008;27;20045;-63
2022/07/05 12:17:43;;;;;;;1.92;0.70;;;22.00;54.60;;;;;;5152702;27;20043;-62
2022/07/05 12:20:12;;;;;;;2.03;0.55;;;21.70;54.00;;;;;;5152122;27;20031;-62
2022/07/05 12:22:41;;;;;;;2.08;0.80;;;21.30;53.40;;;;;;5152934;27;20043;-62
2022/07/05 12:25:10;;;;;;;1.60;0.60;;;22.50;52.60;;;;;;5152051;27;20635;-62
2022/07/05 12:27:38;;;;;;;2.47;0.88;;;23.90;50.40;;;;;;5135536;27;20117;-62
2022/07/05 12:30:05;;;;;;;1.42;0.77;;;25.80;47.40;;;;;;5131593;27;20042;-63
2022/07/05 12:32:31;;;;;;;1.95;0.65;;;27.50;44.70;;;;;;5110380;27;20402;-62
2022/07/05 12:34:58;;;;;;;2.60;0.70;;;29.20;42.10;;;;;;5131354;28;20043;-63
2022/07/05 12:37:25;;;;;;;1.92;0.55;;;30.70;39.50;;;;;;5150583;27;20031;-64
2022/07/05 12:40:06;;;;;;;2.35;0.65;;;31.10;37.20;;;;;;5152411;27;20092;-62
2022/07/05 12:42:40;;;;;;;1.52;0.40;;;31.80;33.00;;;;;;5133184;27;20041;-62
2022/07/05 12:45:10;;;;;;;0.63;0.40;;;33.40;35.00;;;;;;5150950;27;20042;-63
2022/07/05 12:47:53;;;;;;;3.67;0.50;;;34.80;34.30;;;;;;5132519;27;20084;-63
2022/07/05 12:50:29;;;;;;;2.05;0.52;;;35.10;32.70;;;;;;5151784;27;20924;-63
2022/07/05 12:53:00;;;;;;;1.25;0.47;;;33.40;32.40;;;;;;5151812;27;20042;-63
2022/07/05 12:58:20;;;;;;;2.10;0.63;;;31.30;33.20;;;;;;5147930;27;20047;-63
2022/07/05 13:00:45;;;;;;;2.42;0.77;;;29.80;37.00;;;;;;5152721;27;20087;-62
2022/07/05 13:03:12;;;;;;;1.65;0.63;;;29.50;39.30;;;;;;5137089;27;20026;-63
2022/07/05 13:05:37;;;;;;;1.90;0.73;;;30.60;39.20;;;;;;5153874;27;20046;-62
2022/07/05 13:08:03;;;;;;;6.88;0.95;;;31.20;39.00;;;;;;5157555;27;20379;-63
2022/07/05 13:10:31;;;;;;;3.00;0.90;;;32.30;37.90;;;;;;5155368;27;20048;-64
2022/07/05 13:12:57;;;;;;;3.53;0.80;;;31.30;37.40;;;;;;5156386;27;20495;-63
2022/07/05 13:15:23;;;;;;;3.92;0.70;;;29.90;38.30;;;;;;5153834;27;20038;-63